sensor_id;sensor_type;location;lat;lon;timestamp;pressure;altitude;pressure_sealevel;temperature;humidity
66880;BME280;53789;51.392;10.234;2022-11-20T00:00:06;97827.00;;;-5.81;70.19
66880;BME280;53789;51.392;10.234;2022-11-20T00:00:27;97822.50;;;-5.81;69.78
66880;BME280;53789;51.392;10.234;2022-11-20T00:00:48;97826.19;;;-5.82;69.92
66880;BME280;53789;51.392;10.234;2022-11-20T00:01:20;97833.22;;;-5.81;70.13
66880;BME280;53789;51.392;10.234;2022-11-20T00:01:41;97825.38;;;-5.82;69.91
66880;BME280;53789;51.392;10.234;2022-11-20T00:02:01;97822.91;;;-5.84;69.76
66880;BME280;53789;51.392;10.234;2022-11-20T00:02:21;97827.66;;;-5.86;69.87
66880;BME280;53789;51.392;10.234;2022-11-20T00:02:42;97824.16;;;-5.86;70.04
66880;BME280;53789;51.392;10.234;2022-11-20T00:03:02;97833.84;;;-5.85;69.47
66880;BME280;53789;51.392;10.234;2022-11-20T00:03:23;97830.53;;;-5.87;68.75
66880;BME280;53789;51.392;10.234;2022-11-20T00:03:44;97830.75;;;-5.89;68.82
66880;BME280;53789;51.392;10.234;2022-11-20T00:04:04;97827.25;;;-5.89;69.35
66880;BME280;53789;51.392;10.234;2022-11-20T00:04:25;97829.31;;;-5.91;69.43
66880;BME280;53789;51.392;10.234;2022-11-20T00:04:45;97833.84;;;-5.92;69.77
66880;BME280;53789;51.392;10.234;2022-11-20T00:05:06;97829.53;;;-5.93;70.46
66880;BME280;53789;51.392;10.234;2022-11-20T00:05:26;97832.84;;;-5.91;70.12
66880;BME280;53789;51.392;10.234;2022-11-20T00:05:46;97828.50;;;-5.92;71.04
66880;BME280;53789;51.392;10.234;2022-11-20T00:06:16;97838.19;;;-5.91;71.10
66880;BME280;53789;51.392;10.234;2022-11-20T00:06:36;97835.50;;;-5.91;71.18
66880;BME280;53789;51.392;10.234;2022-11-20T00:06:56;97835.50;;;-5.91;70.54
66880;BME280;53789;51.392;10.234;2022-11-20T00:07:17;97832.00;;;-5.91;71.23
66880;BME280;53789;51.392;10.234;2022-11-20T00:07:37;97836.31;;;-5.90;70.90
66880;BME280;53789;51.392;10.234;2022-11-20T00:07:57;97840.88;;;-5.91;70.66
66880;BME280;53789;51.392;10.234;2022-11-20T00:08:18;97839.84;;;-5.90;70.77
66880;BME280;53789;51.392;10.234;2022-11-20T00:08:38;97839.84;;;-5.90;69.85
66880;BME280;53789;51.392;10.234;2022-11-20T00:08:59;97834.50;;;-5.90;70.11
66880;BME280;53789;51.392;10.234;2022-11-20T00:09:20;97834.50;;;-5.90;70.39
66880;BME280;53789;51.392;10.234;2022-11-20T00:09:40;97836.09;;;-5.89;70.06
66880;BME280;53789;51.392;10.234;2022-11-20T00:10:00;97836.94;;;-5.88;69.92
66880;BME280;53789;51.392;10.234;2022-11-20T00:10:21;97836.94;;;-5.88;70.21
66880;BME280;53789;51.392;10.234;2022-11-20T00:10:41;97830.75;;;-5.89;70.33
66880;BME280;53789;51.392;10.234;2022-11-20T00:11:15;97831.81;;;-5.90;69.83
66880;BME280;53789;51.392;10.234;2022-11-20T00:11:36;97834.50;;;-5.90;70.08
66880;BME280;53789;51.392;10.234;2022-11-20T00:11:56;97826.44;;;-5.90;70.53
66880;BME280;53789;51.392;10.234;2022-11-20T00:12:16;97825.59;;;-5.90;69.95
66880;BME280;53789;51.392;10.234;2022-11-20T00:12:37;97826.63;;;-5.91;69.03
66880;BME280;53789;51.392;10.234;2022-11-20T00:13:00;97830.16;;;-5.91;69.49
66880;BME280;53789;51.392;10.234;2022-11-20T00:13:20;97825.81;;;-5.92;69.28
66880;BME280;53789;51.392;10.234;2022-11-20T00:13:40;97831.38;;;-5.94;69.39
66880;BME280;53789;51.392;10.234;2022-11-20T00:14:02;97827.28;;;-5.96;69.90
66880;BME280;53789;51.392;10.234;2022-11-20T00:14:22;97827.91;;;-5.94;70.11
66880;BME280;53789;51.392;10.234;2022-11-20T00:14:42;97825.00;;;-5.92;70.00
66880;BME280;53789;51.392;10.234;2022-11-20T00:15:03;97826.03;;;-5.94;69.81
66880;BME280;53789;51.392;10.234;2022-11-20T00:15:24;97826.84;;;-5.93;69.33
66880;BME280;53789;51.392;10.234;2022-11-20T00:15:44;97820.69;;;-5.94;69.65
66880;BME280;53789;51.392;10.234;2022-11-20T00:16:07;97823.34;;;-5.94;69.06
66880;BME280;53789;51.392;10.234;2022-11-20T00:16:31;97821.50;;;-5.93;69.71
66880;BME280;53789;51.392;10.234;2022-11-20T00:16:51;97819.03;;;-5.95;68.90
66880;BME280;53789;51.392;10.234;2022-11-20T00:17:12;97819.22;;;-5.96;68.92
66880;BME280;53789;51.392;10.234;2022-11-20T00:17:32;97821.91;;;-5.96;69.33
66880;BME280;53789;51.392;10.234;2022-11-20T00:17:52;97820.28;;;-5.97;69.77
66880;BME280;53789;51.392;10.234;2022-11-20T00:18:12;97821.09;;;-5.97;69.89
66880;BME280;53789;51.392;10.234;2022-11-20T00:18:33;97817.59;;;-5.97;69.84
66880;BME280;53789;51.392;10.234;2022-11-20T00:18:54;97823.19;;;-5.99;69.59
66880;BME280;53789;51.392;10.234;2022-11-20T00:19:14;97819.66;;;-5.99;70.55
66880;BME280;53789;51.392;10.234;2022-11-20T00:19:35;97818.84;;;-6.00;70.70
66880;BME280;53789;51.392;10.234;2022-11-20T00:19:55;97819.88;;;-6.01;70.59
66880;BME280;53789;51.392;10.234;2022-11-20T00:20:15;97827.69;;;-5.99;70.25
66880;BME280;53789;51.392;10.234;2022-11-20T00:20:36;97818.03;;;-6.00;69.98
66880;BME280;53789;51.392;10.234;2022-11-20T00:21:23;97821.53;;;-6.00;70.22
66880;BME280;53789;51.392;10.234;2022-11-20T00:21:44;97818.84;;;-6.00;70.85
66880;BME280;53789;51.392;10.234;2022-11-20T00:22:05;97825.84;;;-5.99;70.04
66880;BME280;53789;51.392;10.234;2022-11-20T00:22:25;97824.81;;;-5.98;70.19
66880;BME280;53789;51.392;10.234;2022-11-20T00:22:45;97825.84;;;-5.99;70.22
66880;BME280;53789;51.392;10.234;2022-11-20T00:23:05;97825.00;;;-5.99;69.83
66880;BME280;53789;51.392;10.234;2022-11-20T00:23:26;97828.53;;;-5.99;69.82
66880;BME280;53789;51.392;10.234;2022-11-20T00:23:47;97826.66;;;-5.98;70.60
66880;BME280;53789;51.392;10.234;2022-11-20T00:24:08;97821.31;;;-5.98;70.07
66880;BME280;53789;51.392;10.234;2022-11-20T00:24:29;97820.72;;;-6.00;69.50
66880;BME280;53789;51.392;10.234;2022-11-20T00:24:49;97826.88;;;-6.00;69.87
66880;BME280;53789;51.392;10.234;2022-11-20T00:25:09;97825.22;;;-6.01;70.55
66880;BME280;53789;51.392;10.234;2022-11-20T00:25:30;97823.59;;;-6.02;70.28
66880;BME280;53789;51.392;10.234;2022-11-20T00:25:50;97826.28;;;-6.02;69.69
66880;BME280;53789;51.392;10.234;2022-11-20T00:26:13;97826.47;;;-6.03;69.40
66880;BME280;53789;51.392;10.234;2022-11-20T00:26:34;97829.13;;;-6.03;70.19
66880;BME280;53789;51.392;10.234;2022-11-20T00:26:54;97825.66;;;-6.04;69.68
66880;BME280;53789;51.392;10.234;2022-11-20T00:27:14;97826.66;;;-6.05;69.66
66880;BME280;53789;51.392;10.234;2022-11-20T00:27:34;97830.19;;;-6.04;70.99
66880;BME280;53789;51.392;10.234;2022-11-20T00:27:55;97832.88;;;-6.04;71.18
66880;BME280;53789;51.392;10.234;2022-11-20T00:28:15;97827.72;;;-6.06;70.09
66880;BME280;53789;51.392;10.234;2022-11-20T00:28:36;97825.03;;;-6.06;70.68
66880;BME280;53789;51.392;10.234;2022-11-20T00:28:58;97831.41;;;-6.07;70.40
66880;BME280;53789;51.392;10.234;2022-11-20T00:29:19;97829.34;;;-6.05;71.64
66880;BME280;53789;51.392;10.234;2022-11-20T00:29:39;97827.50;;;-6.04;70.78
66880;BME280;53789;51.392;10.234;2022-11-20T00:29:59;97831.81;;;-6.03;70.67
66880;BME280;53789;51.392;10.234;2022-11-20T00:30:20;97832.66;;;-6.03;70.72
66880;BME280;53789;51.392;10.234;2022-11-20T00:30:41;97823.78;;;-6.03;70.22
66880;BME280;53789;51.392;10.234;2022-11-20T00:31:13;97829.97;;;-6.03;70.47
66880;BME280;53789;51.392;10.234;2022-11-20T00:31:35;97831.63;;;-6.02;70.64
66880;BME280;53789;51.392;10.234;2022-11-20T00:31:55;97830.56;;;-6.01;70.24
66880;BME280;53789;51.392;10.234;2022-11-20T00:32:15;97826.88;;;-6.00;70.68
66880;BME280;53789;51.392;10.234;2022-11-20T00:32:36;97825.22;;;-6.01;70.17
66880;BME280;53789;51.392;10.234;2022-11-20T00:32:56;97824.19;;;-6.00;69.76
66880;BME280;53789;51.392;10.234;2022-11-20T00:33:17;97831.22;;;-5.99;69.88
66880;BME280;53789;51.392;10.234;2022-11-20T00:33:37;97829.34;;;-5.98;70.29
66880;BME280;53789;51.392;10.234;2022-11-20T00:33:58;97826.66;;;-5.98;70.13
66880;BME280;53789;51.392;10.234;2022-11-20T00:34:18;97825.00;;;-5.99;69.62
66880;BME280;53789;51.392;10.234;2022-11-20T00:34:38;97826.66;;;-5.98;70.32
66880;BME280;53789;51.392;10.234;2022-11-20T00:34:59;97822.97;;;-5.97;70.09
66880;BME280;53789;51.392;10.234;2022-11-20T00:35:19;97824.59;;;-5.96;69.39
66880;BME280;53789;51.392;10.234;2022-11-20T00:35:39;97829.94;;;-5.96;69.92
66880;BME280;53789;51.392;10.234;2022-11-20T00:36:05;97825.44;;;-5.96;69.92
66880;BME280;53789;51.392;10.234;2022-11-20T00:36:27;97822.75;;;-5.96;69.74
66880;BME280;53789;51.392;10.234;2022-11-20T00:36:48;97827.06;;;-5.95;70.22
66880;BME280;53789;51.392;10.234;2022-11-20T00:37:08;97822.75;;;-5.96;69.73
66880;BME280;53789;51.392;10.234;2022-11-20T00:37:28;97825.22;;;-5.94;69.32
66880;BME280;53789;51.392;10.234;2022-11-20T00:37:49;97819.03;;;-5.95;69.54
66880;BME280;53789;51.392;10.234;2022-11-20T00:38:09;97823.56;;;-5.95;70.01
66880;BME280;53789;51.392;10.234;2022-11-20T00:38:30;97817.59;;;-5.97;69.53
66880;BME280;53789;51.392;10.234;2022-11-20T00:38:56;97819.44;;;-5.98;69.34
66880;BME280;53789;51.392;10.234;2022-11-20T00:39:17;97819.22;;;-5.96;68.43
66880;BME280;53789;51.392;10.234;2022-11-20T00:39:37;97822.97;;;-5.97;69.40
66880;BME280;53789;51.392;10.234;2022-11-20T00:39:57;97821.09;;;-5.97;69.64
66880;BME280;53789;51.392;10.234;2022-11-20T00:40:17;97817.59;;;-5.97;69.24
66880;BME280;53789;51.392;10.234;2022-11-20T00:40:38;97825.44;;;-5.96;69.77
66880;BME280;53789;51.392;10.234;2022-11-20T00:41:00;97816.56;;;-5.96;69.48
66880;BME280;53789;51.392;10.234;2022-11-20T00:41:21;97820.28;;;-5.97;69.86
66880;BME280;53789;51.392;10.234;2022-11-20T00:41:41;97819.22;;;-5.96;69.71
66880;BME280;53789;51.392;10.234;2022-11-20T00:42:02;97820.06;;;-5.96;69.38
66880;BME280;53789;51.392;10.234;2022-11-20T00:42:22;97817.41;;;-5.96;69.50
66880;BME280;53789;51.392;10.234;2022-11-20T00:42:42;97819.22;;;-5.96;69.41
66880;BME280;53789;51.392;10.234;2022-11-20T00:43:03;97819.22;;;-5.96;69.75
66880;BME280;53789;51.392;10.234;2022-11-20T00:43:23;97819.22;;;-5.96;69.12
66880;BME280;53789;51.392;10.234;2022-11-20T00:43:43;97823.78;;;-5.97;69.50
66880;BME280;53789;51.392;10.234;2022-11-20T00:44:04;97821.91;;;-5.96;69.31
66880;BME280;53789;51.392;10.234;2022-11-20T00:44:24;97812.25;;;-5.97;69.59
66880;BME280;53789;51.392;10.234;2022-11-20T00:44:44;97813.88;;;-5.96;70.02
66880;BME280;53789;51.392;10.234;2022-11-20T00:45:05;97818.22;;;-5.95;69.97
66880;BME280;53789;51.392;10.234;2022-11-20T00:45:26;97821.69;;;-5.95;71.15
66880;BME280;53789;51.392;10.234;2022-11-20T00:45:46;97820.06;;;-5.96;70.32
66880;BME280;53789;51.392;10.234;2022-11-20T00:46:09;97821.50;;;-5.93;70.28
66880;BME280;53789;51.392;10.234;2022-11-20T00:46:32;97814.28;;;-5.92;69.52
66880;BME280;53789;51.392;10.234;2022-11-20T00:46:52;97817.78;;;-5.92;69.45
66880;BME280;53789;51.392;10.234;2022-11-20T00:47:12;97816.75;;;-5.91;69.34
66880;BME280;53789;51.392;10.234;2022-11-20T00:47:33;97813.06;;;-5.90;70.07
66880;BME280;53789;51.392;10.234;2022-11-20T00:47:53;97818.41;;;-5.90;69.47
66880;BME280;53789;51.392;10.234;2022-11-20T00:48:13;97810.38;;;-5.90;69.38
66880;BME280;53789;51.392;10.234;2022-11-20T00:48:34;97820.25;;;-5.90;69.84
66880;BME280;53789;51.392;10.234;2022-11-20T00:48:55;97818.41;;;-5.90;68.86
66880;BME280;53789;51.392;10.234;2022-11-20T00:49:15;97813.88;;;-5.89;69.43
66880;BME280;53789;51.392;10.234;2022-11-20T00:49:35;97821.28;;;-5.91;69.58
66880;BME280;53789;51.392;10.234;2022-11-20T00:49:55;97818.59;;;-5.91;69.20
66880;BME280;53789;51.392;10.234;2022-11-20T00:50:16;97814.09;;;-5.91;70.17
66880;BME280;53789;51.392;10.234;2022-11-20T00:50:36;97818.41;;;-5.90;68.80
66880;BME280;53789;51.392;10.234;2022-11-20T00:50:57;97815.09;;;-5.92;68.96
66880;BME280;53789;51.392;10.234;2022-11-20T00:51:20;97818.59;;;-5.91;68.45
66880;BME280;53789;51.392;10.234;2022-11-20T00:51:41;97822.53;;;-5.94;69.22
66880;BME280;53789;51.392;10.234;2022-11-20T00:52:01;97810.97;;;-5.95;68.63
66880;BME280;53789;51.392;10.234;2022-11-20T00:52:21;97819.22;;;-5.96;68.23
66880;BME280;53789;51.392;10.234;2022-11-20T00:52:42;97818.41;;;-5.97;68.49
66880;BME280;53789;51.392;10.234;2022-11-20T00:53:02;97819.44;;;-5.98;68.57
66880;BME280;53789;51.392;10.234;2022-11-20T00:53:22;97820.28;;;-5.97;68.56
66880;BME280;53789;51.392;10.234;2022-11-20T00:53:43;97818.63;;;-5.98;69.12
66880;BME280;53789;51.392;10.234;2022-11-20T00:54:04;97807.91;;;-5.98;68.43
66880;BME280;53789;51.392;10.234;2022-11-20T00:54:24;97818.63;;;-5.98;69.02
66880;BME280;53789;51.392;10.234;2022-11-20T00:54:44;97822.13;;;-5.98;68.96
66880;BME280;53789;51.392;10.234;2022-11-20T00:55:05;97821.53;;;-6.00;68.93
66880;BME280;53789;51.392;10.234;2022-11-20T00:55:25;97824.00;;;-5.98;70.15
66880;BME280;53789;51.392;10.234;2022-11-20T00:55:54;97817.81;;;-5.99;69.66
66880;BME280;53789;51.392;10.234;2022-11-20T00:56:16;97823.38;;;-6.00;68.89
66880;BME280;53789;51.392;10.234;2022-11-20T00:56:37;97820.72;;;-6.00;69.63
66880;BME280;53789;51.392;10.234;2022-11-20T00:56:57;97826.06;;;-6.00;69.90
66880;BME280;53789;51.392;10.234;2022-11-20T00:57:18;97825.00;;;-5.99;69.27
66880;BME280;53789;51.392;10.234;2022-11-20T00:57:38;97823.38;;;-6.00;69.35
66880;BME280;53789;51.392;10.234;2022-11-20T00:57:58;97819.66;;;-5.99;70.33
66880;BME280;53789;51.392;10.234;2022-11-20T00:58:19;97827.91;;;-6.01;69.91
66880;BME280;53789;51.392;10.234;2022-11-20T00:58:41;97829.13;;;-6.03;68.97
66880;BME280;53789;51.392;10.234;2022-11-20T00:59:02;97824.63;;;-6.03;69.34
66880;BME280;53789;51.392;10.234;2022-11-20T00:59:22;97827.31;;;-6.03;69.33
66880;BME280;53789;51.392;10.234;2022-11-20T00:59:42;97820.06;;;-6.02;68.49
66880;BME280;53789;51.392;10.234;2022-11-20T01:00:03;97816.78;;;-6.04;69.14
66880;BME280;53789;51.392;10.234;2022-11-20T01:00:23;97824.84;;;-6.04;68.82
66880;BME280;53789;51.392;10.234;2022-11-20T01:00:44;97824.19;;;-6.06;69.38
66880;BME280;53789;51.392;10.234;2022-11-20T01:01:13;97824.41;;;-6.08;69.15
66880;BME280;53789;51.392;10.234;2022-11-20T01:01:34;97820.09;;;-6.09;69.46
66880;BME280;53789;51.392;10.234;2022-11-20T01:01:55;97819.25;;;-6.09;69.96
66880;BME280;53789;51.392;10.234;2022-11-20T01:02:16;97827.31;;;-6.09;69.17
66880;BME280;53789;51.392;10.234;2022-11-20T01:02:36;97823.81;;;-6.10;69.63
66880;BME280;53789;51.392;10.234;2022-11-20T01:02:56;97828.34;;;-6.10;70.15
66880;BME280;53789;51.392;10.234;2022-11-20T01:03:18;97826.69;;;-6.12;69.70
66880;BME280;53789;51.392;10.234;2022-11-20T01:03:40;97823.00;;;-6.10;69.58
66880;BME280;53789;51.392;10.234;2022-11-20T01:04:01;97827.50;;;-6.11;69.51
66880;BME280;53789;51.392;10.234;2022-11-20T01:04:22;97821.34;;;-6.12;69.34
66880;BME280;53789;51.392;10.234;2022-11-20T01:04:42;97821.34;;;-6.12;69.60
66880;BME280;53789;51.392;10.234;2022-11-20T01:05:02;97824.22;;;-6.13;69.45
66880;BME280;53789;51.392;10.234;2022-11-20T01:05:23;97814.34;;;-6.13;69.89
66880;BME280;53789;51.392;10.234;2022-11-20T01:05:44;97819.69;;;-6.13;69.49
66880;BME280;53789;51.392;10.234;2022-11-20T01:06:08;97811.66;;;-6.13;69.41
66880;BME280;53789;51.392;10.234;2022-11-20T01:06:32;97823.41;;;-6.14;69.00
66880;BME280;53789;51.392;10.234;2022-11-20T01:06:53;97817.44;;;-6.16;69.81
66880;BME280;53789;51.392;10.234;2022-11-20T01:07:13;97818.06;;;-6.14;69.81
66880;BME280;53789;51.392;10.234;2022-11-20T01:07:33;97811.88;;;-6.14;69.78
66880;BME280;53789;51.392;10.234;2022-11-20T01:07:53;97818.25;;;-6.15;69.27
66880;BME280;53789;51.392;10.234;2022-11-20T01:08:14;97805.91;;;-6.16;70.04
66880;BME280;53789;51.392;10.234;2022-11-20T01:08:35;97811.25;;;-6.16;69.56
66880;BME280;53789;51.392;10.234;2022-11-20T01:08:59;97813.94;;;-6.16;69.76
66880;BME280;53789;51.392;10.234;2022-11-20T01:09:20;97812.28;;;-6.17;69.71
66880;BME280;53789;51.392;10.234;2022-11-20T01:09:40;97812.28;;;-6.17;69.99
66880;BME280;53789;51.392;10.234;2022-11-20T01:10:01;97810.41;;;-6.17;69.73
66880;BME280;53789;51.392;10.234;2022-11-20T01:10:21;97807.75;;;-6.17;70.06
66880;BME280;53789;51.392;10.234;2022-11-20T01:10:41;97806.94;;;-6.17;70.50
66880;BME280;53789;51.392;10.234;2022-11-20T01:11:07;97808.81;;;-6.18;69.62
66880;BME280;53789;51.392;10.234;2022-11-20T01:11:33;97813.31;;;-6.18;69.24
66880;BME280;53789;51.392;10.234;2022-11-20T01:11:54;97805.28;;;-6.18;69.10
66880;BME280;53789;51.392;10.234;2022-11-20T01:12:14;97806.34;;;-6.19;69.66
66880;BME280;53789;51.392;10.234;2022-11-20T01:12:34;97809.00;;;-6.19;69.76
66880;BME280;53789;51.392;10.234;2022-11-20T01:12:55;97810.25;;;-6.22;69.59
66880;BME280;53789;51.392;10.234;2022-11-20T01:13:15;97802.00;;;-6.20;70.05
66880;BME280;53789;51.392;10.234;2022-11-20T01:13:36;97798.72;;;-6.22;69.52
66880;BME280;53789;51.392;10.234;2022-11-20T01:14:00;97808.59;;;-6.23;69.45
66880;BME280;53789;51.392;10.234;2022-11-20T01:14:20;97812.31;;;-6.24;69.42
66880;BME280;53789;51.392;10.234;2022-11-20T01:14:40;97797.28;;;-6.25;69.99
66880;BME280;53789;51.392;10.234;2022-11-20T01:15:01;97801.81;;;-6.25;69.62
66880;BME280;53789;51.392;10.234;2022-11-20T01:15:21;97807.16;;;-6.25;69.43
66880;BME280;53789;51.392;10.234;2022-11-20T01:15:41;97803.44;;;-6.24;69.36
66880;BME280;53789;51.392;10.234;2022-11-20T01:16:06;97805.31;;;-6.25;69.53
66880;BME280;53789;51.392;10.234;2022-11-20T01:16:33;97802.03;;;-6.27;69.44
66880;BME280;53789;51.392;10.234;2022-11-20T01:16:53;97804.50;;;-6.25;69.54
66880;BME280;53789;51.392;10.234;2022-11-20T01:17:14;97804.50;;;-6.25;71.01
66880;BME280;53789;51.392;10.234;2022-11-20T01:17:34;97803.66;;;-6.26;70.63
66880;BME280;53789;51.392;10.234;2022-11-20T01:17:54;97798.28;;;-6.26;70.15
66880;BME280;53789;51.392;10.234;2022-11-20T01:18:14;97802.03;;;-6.27;70.36
66880;BME280;53789;51.392;10.234;2022-11-20T01:18:36;97808.19;;;-6.26;70.78
66880;BME280;53789;51.392;10.234;2022-11-20T01:19:00;97802.84;;;-6.26;71.07
66880;BME280;53789;51.392;10.234;2022-11-20T01:19:22;97800.97;;;-6.26;71.06
66880;BME280;53789;51.392;10.234;2022-11-20T01:19:43;97805.72;;;-6.28;70.88
66880;BME280;53789;51.392;10.234;2022-11-20T01:20:03;97801.41;;;-6.29;70.42
66880;BME280;53789;51.392;10.234;2022-11-20T01:20:24;97794.38;;;-6.30;70.86
66880;BME280;53789;51.392;10.234;2022-11-20T01:20:44;97804.28;;;-6.31;70.50
66880;BME280;53789;51.392;10.234;2022-11-20T01:21:07;97801.59;;;-6.31;70.68
66880;BME280;53789;51.392;10.234;2022-11-20T01:21:33;97806.16;;;-6.31;70.65
66880;BME280;53789;51.392;10.234;2022-11-20T01:21:54;97807.97;;;-6.32;71.05
66880;BME280;53789;51.392;10.234;2022-11-20T01:22:15;97803.47;;;-6.31;71.52
66880;BME280;53789;51.392;10.234;2022-11-20T01:22:35;97798.13;;;-6.31;70.78
66880;BME280;53789;51.392;10.234;2022-11-20T01:22:55;97807.78;;;-6.30;70.93
66880;BME280;53789;51.392;10.234;2022-11-20T01:23:15;97804.88;;;-6.29;70.59
66880;BME280;53789;51.392;10.234;2022-11-20T01:23:39;97800.78;;;-6.31;70.54
66880;BME280;53789;51.392;10.234;2022-11-20T01:24:00;97803.47;;;-6.31;71.69
66880;BME280;53789;51.392;10.234;2022-11-20T01:24:22;97807.97;;;-6.32;70.91
66880;BME280;53789;51.392;10.234;2022-11-20T01:24:42;97801.59;;;-6.31;70.68
66880;BME280;53789;51.392;10.234;2022-11-20T01:25:03;97806.75;;;-6.29;70.46
66880;BME280;53789;51.392;10.234;2022-11-20T01:25:23;97804.06;;;-6.29;70.63
66880;BME280;53789;51.392;10.234;2022-11-20T01:25:43;97804.06;;;-6.29;70.15
66880;BME280;53789;51.392;10.234;2022-11-20T01:26:15;97811.28;;;-6.30;70.43
66880;BME280;53789;51.392;10.234;2022-11-20T01:26:38;97809.44;;;-6.29;70.83
66880;BME280;53789;51.392;10.234;2022-11-20T01:26:59;97804.88;;;-6.29;70.84
66880;BME280;53789;51.392;10.234;2022-11-20T01:27:19;97806.31;;;-6.26;71.21
66880;BME280;53789;51.392;10.234;2022-11-20T01:27:40;97811.69;;;-6.26;70.16
66880;BME280;53789;51.392;10.234;2022-11-20T01:28:00;97805.31;;;-6.25;70.64
66880;BME280;53789;51.392;10.234;2022-11-20T01:28:20;97800.97;;;-6.26;70.50
66880;BME280;53789;51.392;10.234;2022-11-20T01:28:41;97803.66;;;-6.26;69.78
66880;BME280;53789;51.392;10.234;2022-11-20T01:29:03;97806.13;;;-6.24;70.02
66880;BME280;53789;51.392;10.234;2022-11-20T01:29:24;97800.75;;;-6.24;69.92
66880;BME280;53789;51.392;10.234;2022-11-20T01:29:44;97810.66;;;-6.25;70.55
66880;BME280;53789;51.392;10.234;2022-11-20T01:30:05;97802.41;;;-6.23;70.54
66880;BME280;53789;51.392;10.234;2022-11-20T01:30:26;97808.59;;;-6.23;69.99
66880;BME280;53789;51.392;10.234;2022-11-20T01:30:46;97798.94;;;-6.24;69.44
66880;BME280;53789;51.392;10.234;2022-11-20T01:31:15;97802.22;;;-6.22;69.54
66880;BME280;53789;51.392;10.234;2022-11-20T01:31:37;97803.03;;;-6.21;69.49
66880;BME280;53789;51.392;10.234;2022-11-20T01:31:57;97799.53;;;-6.22;69.41
66880;BME280;53789;51.392;10.234;2022-11-20T01:32:17;97801.19;;;-6.21;69.31
66880;BME280;53789;51.392;10.234;2022-11-20T01:32:38;97803.88;;;-6.21;71.07
66880;BME280;53789;51.392;10.234;2022-11-20T01:32:58;97795.84;;;-6.21;70.23
66880;BME280;53789;51.392;10.234;2022-11-20T01:33:18;97806.34;;;-6.19;69.77
66880;BME280;53789;51.392;10.234;2022-11-20T01:33:40;97793.75;;;-6.19;69.52
66880;BME280;53789;51.392;10.234;2022-11-20T01:34:03;97796.44;;;-6.19;70.00
66880;BME280;53789;51.392;10.234;2022-11-20T01:34:24;97803.66;;;-6.19;69.71
66880;BME280;53789;51.392;10.234;2022-11-20T01:34:44;97799.91;;;-6.18;69.44
66880;BME280;53789;51.392;10.234;2022-11-20T01:35:05;97792.09;;;-6.20;69.08
66880;BME280;53789;51.392;10.234;2022-11-20T01:35:25;97798.31;;;-6.19;69.10
66880;BME280;53789;51.392;10.234;2022-11-20T01:35:45;97794.78;;;-6.20;69.72
66880;BME280;53789;51.392;10.234;2022-11-20T01:36:06;97794.78;;;-6.20;69.72
66880;BME280;53789;51.392;10.234;2022-11-20T01:36:29;97792.94;;;-6.19;69.08
66880;BME280;53789;51.392;10.234;2022-11-20T01:36:51;97795.63;;;-6.19;68.96
66880;BME280;53789;51.392;10.234;2022-11-20T01:37:11;97796.44;;;-6.19;69.77
66880;BME280;53789;51.392;10.234;2022-11-20T01:37:32;97794.78;;;-6.20;69.50
66880;BME280;53789;51.392;10.234;2022-11-20T01:37:52;97789.22;;;-6.18;69.67
66880;BME280;53789;51.392;10.234;2022-11-20T01:38:12;97792.94;;;-6.19;69.42
66880;BME280;53789;51.392;10.234;2022-11-20T01:38:33;97792.94;;;-6.19;68.71
66880;BME280;53789;51.392;10.234;2022-11-20T01:38:55;97790.25;;;-6.19;68.60
66880;BME280;53789;51.392;10.234;2022-11-20T01:39:19;97793.75;;;-6.19;68.32
66880;BME280;53789;51.392;10.234;2022-11-20T01:39:40;97790.25;;;-6.19;68.87
66880;BME280;53789;51.392;10.234;2022-11-20T01:40:00;97791.09;;;-6.19;68.91
66880;BME280;53789;51.392;10.234;2022-11-20T01:40:21;97788.41;;;-6.19;68.82
66880;BME280;53789;51.392;10.234;2022-11-20T01:40:41;97787.59;;;-6.19;68.52
66880;BME280;53789;51.392;10.234;2022-11-20T01:41:01;97790.25;;;-6.19;68.43
66880;BME280;53789;51.392;10.234;2022-11-20T01:41:23;97793.75;;;-6.19;68.29
66880;BME280;53789;51.392;10.234;2022-11-20T01:41:45;97792.09;;;-6.20;67.99
66880;BME280;53789;51.392;10.234;2022-11-20T01:42:07;97787.81;;;-6.21;68.23
66880;BME280;53789;51.392;10.234;2022-11-20T01:42:27;97784.28;;;-6.21;67.94
66880;BME280;53789;51.392;10.234;2022-11-20T01:43:01;97786.34;;;-6.23;68.17
66880;BME280;53789;51.392;10.234;2022-11-20T01:43:29;97784.91;;;-6.26;68.32
66880;BME280;53789;51.392;10.234;2022-11-20T01:43:50;97789.47;;;-6.26;68.27
66880;BME280;53789;51.392;10.234;2022-11-20T01:44:13;97788.66;;;-6.27;68.36
66880;BME280;53789;51.392;10.234;2022-11-20T01:46:18;97787.19;;;-6.30;68.96
66880;BME280;53789;51.392;10.234;2022-11-20T01:46:44;97779.38;;;-6.31;69.56
66880;BME280;53789;51.392;10.234;2022-11-20T01:47:13;97779.38;;;-6.31;69.01
66880;BME280;53789;51.392;10.234;2022-11-20T01:47:43;97779.59;;;-6.33;69.03
66880;BME280;53789;51.392;10.234;2022-11-20T01:48:05;97776.06;;;-6.33;69.67
66880;BME280;53789;51.392;10.234;2022-11-20T01:48:41;97781.44;;;-6.33;69.74
66880;BME280;53789;51.392;10.234;2022-11-20T01:49:22;97781.44;;;-6.33;69.17
66880;BME280;53789;51.392;10.234;2022-11-20T01:49:52;97778.97;;;-6.35;69.51
66880;BME280;53789;51.392;10.234;2022-11-20T01:50:18;97769.91;;;-6.34;70.00
66880;BME280;53789;51.392;10.234;2022-11-20T01:50:43;97775.25;;;-6.34;69.28
66880;BME280;53789;51.392;10.234;2022-11-20T01:51:07;97773.41;;;-6.33;69.81
66880;BME280;53789;51.392;10.234;2022-11-20T01:51:52;97774.44;;;-6.34;69.20
66880;BME280;53789;51.392;10.234;2022-11-20T01:52:25;97771.97;;;-6.36;69.55
66880;BME280;53789;51.392;10.234;2022-11-20T01:52:54;97776.50;;;-6.36;69.14
66880;BME280;53789;51.392;10.234;2022-11-20T01:53:21;97768.25;;;-6.35;69.64
66880;BME280;53789;51.392;10.234;2022-11-20T01:53:45;97769.31;;;-6.36;69.66
66880;BME280;53789;51.392;10.234;2022-11-20T01:54:14;97771.13;;;-6.36;70.00
66880;BME280;53789;51.392;10.234;2022-11-20T01:54:44;97765.78;;;-6.36;69.71
66880;BME280;53789;51.392;10.234;2022-11-20T01:55:18;97763.31;;;-6.38;70.29
66880;BME280;53789;51.392;10.234;2022-11-20T01:55:44;97763.09;;;-6.36;69.92